createdAt,value
2019-04-07T00:01:59.467Z,4.67
2019-04-07T00:04:28.285Z,4.83
2019-04-07T00:06:57.620Z,4.80
2019-04-07T00:09:26.621Z,4.83
2019-04-07T00:11:55.393Z,5.20
2019-04-07T00:14:24.682Z,5.40
2019-04-07T00:16:53.779Z,5.17
2019-04-07T00:19:23.145Z,5.23
2019-04-07T00:21:51.939Z,4.77
2019-04-07T00:24:20.779Z,5.37
2019-04-07T00:26:49.553Z,5.10
2019-04-07T00:29:18.421Z,5.00
2019-04-07T00:31:47.198Z,4.97
2019-04-07T00:34:16.139Z,5.50
2019-04-07T00:36:44.965Z,5.43
2019-04-07T00:39:13.724Z,4.90
2019-04-07T00:41:42.935Z,5.20
2019-04-07T00:44:11.758Z,5.10
2019-04-07T00:46:40.508Z,5.37
2019-04-07T00:49:09.481Z,5.10
2019-04-07T00:51:38.451Z,5.57
2019-04-07T00:54:07.354Z,5.53
2019-04-07T00:56:36.149Z,5.33
2019-04-07T00:59:05.314Z,5.60
2019-04-07T01:01:34.974Z,5.57
2019-04-07T01:04:04.394Z,5.70
2019-04-07T01:06:33.974Z,5.40
2019-04-07T01:09:04.617Z,5.37
2019-04-07T01:11:33.346Z,5.27
2019-04-07T01:14:02.767Z,6.23
2019-04-07T01:16:31.663Z,6.07
2019-04-07T01:19:00.388Z,5.37
2019-04-07T01:21:29.190Z,5.63
2019-04-07T01:23:57.990Z,5.30
2019-04-07T01:26:26.751Z,5.97
2019-04-07T01:28:55.513Z,5.63
2019-04-07T01:31:24.261Z,5.30
2019-04-07T01:33:53.169Z,5.67
2019-04-07T01:36:22.593Z,5.90
2019-04-07T01:38:52.094Z,5.93
2019-04-07T01:41:43.114Z,5.80
2019-04-07T01:44:43.223Z,5.67
2019-04-07T01:47:29.518Z,5.77
2019-04-07T01:50:09.886Z,5.70
2019-04-07T01:53:10.048Z,5.73
2019-04-07T01:55:48.204Z,5.60
2019-04-07T01:58:54.496Z,6.00
2019-04-07T02:01:51.735Z,5.80
2019-04-07T02:04:39.942Z,5.80
2019-04-07T02:07:30.604Z,5.77
2019-04-07T02:10:17.003Z,5.83
2019-04-07T02:13:13.978Z,5.73
2019-04-07T02:15:54.858Z,6.10
2019-04-07T02:18:52.176Z,5.63
2019-04-07T02:21:45.870Z,5.43
2019-04-07T02:24:31.842Z,5.50
2019-04-07T02:27:10.610Z,5.47
2019-04-07T02:30:01.842Z,5.70
2019-04-07T02:33:00.012Z,6.03
2019-04-07T02:35:37.868Z,6.17
2019-04-07T02:38:25.699Z,6.10
2019-04-07T02:41:08.818Z,5.30
2019-04-07T02:43:55.716Z,6.20
2019-04-07T02:46:31.838Z,6.30
2019-04-07T02:49:12.308Z,6.37
2019-04-07T02:52:03.865Z,6.67
2019-04-07T02:54:52.878Z,5.80
2019-04-07T02:57:40.823Z,5.77
2019-04-07T03:00:24.745Z,6.00
2019-04-07T03:03:11.638Z,6.30
2019-04-07T03:06:03.639Z,6.33
2019-04-07T03:08:50.668Z,6.57
2019-04-07T03:11:47.427Z,5.83
2019-04-07T03:14:39.280Z,5.90
2019-04-07T03:17:16.216Z,6.37
2019-04-07T03:20:03.040Z,6.70
2019-04-07T03:22:50.966Z,6.93
2019-04-07T03:25:28.047Z,6.10
2019-04-07T03:28:19.757Z,6.30
2019-04-07T03:30:59.807Z,6.80
2019-04-07T03:33:43.075Z,5.80
2019-04-07T03:36:30.372Z,6.00
2019-04-07T03:39:17.769Z,6.23
2019-04-07T03:42:10.920Z,6.47
2019-04-07T03:44:46.900Z,6.63
2019-04-07T03:47:37.943Z,6.10
2019-04-07T03:50:29.542Z,6.47
2019-04-07T03:53:17.949Z,6.53
2019-04-07T03:55:53.483Z,6.90
2019-04-07T03:58:41.341Z,6.47
2019-04-07T04:01:28.482Z,6.57
2019-04-07T04:04:16.697Z,6.37
2019-04-07T04:07:18.119Z,7.07
2019-04-07T04:09:42.827Z,6.70
2019-04-07T04:12:37.570Z,6.13
2019-04-07T04:15:13.448Z,6.63
2019-04-07T04:17:42.202Z,7.17
2019-04-07T04:20:11.139Z,6.30
2019-04-07T04:22:39.984Z,5.93
2019-04-07T04:25:09.083Z,6.50
2019-04-07T04:27:38.767Z,6.70
2019-04-07T04:30:10.259Z,7.00
2019-04-07T04:32:39.642Z,6.60
2019-04-07T04:35:08.651Z,6.00
2019-04-07T04:37:46.053Z,6.60
2019-04-07T04:40:07.931Z,6.37
2019-04-07T04:42:37.610Z,6.10
2019-04-07T04:45:08.057Z,6.00
2019-04-07T04:47:37.695Z,6.20
2019-04-07T04:50:08.131Z,6.53
2019-04-07T04:52:37.026Z,6.43
2019-04-07T04:55:07.030Z,6.47
2019-04-07T04:57:36.004Z,6.90
2019-04-07T05:00:05.822Z,6.20
2019-04-07T05:02:34.762Z,6.03
2019-04-07T05:05:04.064Z,6.47
2019-04-07T05:07:46.842Z,6.50
2019-04-07T05:10:03.386Z,6.33
2019-04-07T05:12:32.265Z,6.60
2019-04-07T05:15:01.723Z,7.10
2019-04-07T05:17:31.129Z,6.57
2019-04-07T05:20:00.221Z,6.50
2019-04-07T05:22:29.129Z,6.40
2019-04-07T05:24:58.193Z,6.53
2019-04-07T05:27:27.687Z,6.57
2019-04-07T05:29:56.725Z,6.80
2019-04-07T05:32:25.642Z,6.40
2019-04-07T05:34:54.502Z,6.50
2019-04-07T05:37:24.146Z,6.63
2019-04-07T05:39:53.754Z,6.57
2019-04-07T05:42:22.710Z,6.63
2019-04-07T05:44:51.704Z,7.03
2019-04-07T05:47:21.275Z,7.87
2019-04-07T05:49:54.413Z,7.07
2019-04-07T05:52:21.802Z,6.87
2019-04-07T05:54:51.518Z,6.07
2019-04-07T05:57:20.871Z,6.10
2019-04-07T05:59:50.334Z,6.80
2019-04-07T06:02:19.433Z,6.60
2019-04-07T06:04:49.254Z,6.53
2019-04-07T06:07:21.258Z,6.67
2019-04-07T06:09:52.708Z,7.17
2019-04-07T06:12:21.559Z,6.67
2019-04-07T06:14:50.898Z,6.33
2019-04-07T06:17:21.087Z,6.67
2019-04-07T06:19:51.607Z,6.40
2019-04-07T06:22:21.767Z,6.60
2019-04-07T06:24:51.340Z,6.70
2019-04-07T06:27:20.205Z,6.70
2019-04-07T06:29:48.994Z,7.10
2019-04-07T06:32:17.817Z,6.47
2019-04-07T06:34:48.986Z,6.53
2019-04-07T06:37:17.798Z,6.43
2019-04-07T06:39:50.075Z,6.30
2019-04-07T06:42:17.589Z,6.30
2019-04-07T06:44:50.296Z,6.73
2019-04-07T06:47:23.797Z,6.60
2019-04-07T06:50:15.765Z,6.70
2019-04-07T06:52:53.092Z,6.87
2019-04-07T06:55:41.721Z,6.33
2019-04-07T06:58:33.088Z,6.53
2019-04-07T07:01:36.198Z,6.33
2019-04-07T07:04:25.609Z,6.53
2019-04-07T07:07:03.621Z,7.07
2019-04-07T07:09:52.111Z,6.23
2019-04-07T07:12:46.113Z,6.43
2019-04-07T07:15:26.601Z,7.20
2019-04-07T07:18:27.257Z,6.47
2019-04-07T07:21:24.078Z,6.43
2019-04-07T07:23:52.473Z,5.97
2019-04-07T07:26:21.882Z,6.27
2019-04-07T07:28:51.059Z,7.50
2019-04-07T07:31:22.939Z,7.10
2019-04-07T07:33:50.490Z,6.87
2019-04-07T07:36:21.446Z,6.40
2019-04-07T07:38:58.998Z,6.23
2019-04-07T07:41:22.950Z,7.13
2019-04-07T07:43:51.391Z,6.00
2019-04-07T07:46:21.836Z,6.50
2019-04-07T07:48:51.132Z,6.40
2019-04-07T07:51:20.320Z,6.97
2019-04-07T07:53:49.139Z,6.40
2019-04-07T07:56:17.912Z,6.60
2019-04-07T07:58:47.259Z,6.10
2019-04-07T08:01:17.813Z,7.03
2019-04-07T08:03:46.947Z,5.80
2019-04-07T08:06:16.090Z,7.10
2019-04-07T08:08:46.273Z,7.03
2019-04-07T08:11:16.326Z,7.40
2019-04-07T08:13:46.764Z,7.23
2019-04-07T08:16:16.369Z,7.17
2019-04-07T08:18:46.498Z,7.00
2019-04-07T08:21:18.484Z,7.23
2019-04-07T08:23:47.128Z,7.60
2019-04-07T08:26:16.105Z,7.60
2019-04-07T08:28:45.031Z,7.17
2019-04-07T08:31:17.778Z,7.43
2019-04-07T08:33:44.840Z,6.60
2019-04-07T08:36:14.220Z,6.90
2019-04-07T08:38:43.835Z,7.40
2019-04-07T08:41:15.446Z,7.23
2019-04-07T08:43:43.390Z,7.07
2019-04-07T08:46:12.264Z,7.27
2019-04-07T08:48:41.060Z,7.20
2019-04-07T08:51:10.126Z,7.27
2019-04-07T08:53:38.977Z,7.53
2019-04-07T08:56:08.871Z,7.23
2019-04-07T08:58:39.143Z,6.97
2019-04-07T09:01:08.635Z,6.87
2019-04-07T09:03:37.388Z,6.90
2019-04-07T09:06:06.305Z,7.37
2019-04-07T09:08:37.966Z,7.60
2019-04-07T09:11:10.169Z,7.17
2019-04-07T09:13:39.547Z,7.27
2019-04-07T09:16:26.176Z,7.37
2019-04-07T09:19:06.024Z,7.70
2019-04-07T09:21:55.991Z,7.23
2019-04-07T09:24:42.873Z,7.27
2019-04-07T09:27:23.335Z,7.30
2019-04-07T09:30:15.361Z,7.50
2019-04-07T09:33:03.360Z,7.53
2019-04-07T09:36:10.177Z,7.80
2019-04-07T09:39:02.574Z,6.87
2019-04-07T09:41:55.251Z,6.60
2019-04-07T09:44:46.757Z,7.30
2019-04-07T09:47:27.629Z,7.17
2019-04-07T09:50:27.765Z,7.70
2019-04-07T09:53:10.774Z,7.60
2019-04-07T09:55:56.851Z,7.33
2019-04-07T09:58:45.340Z,7.07
2019-04-07T10:01:37.714Z,7.93
2019-04-07T10:04:24.388Z,7.53
2019-04-07T10:07:12.140Z,7.13
2019-04-07T10:10:03.626Z,7.20
2019-04-07T10:12:36.276Z,7.37
2019-04-07T10:15:26.274Z,7.20
2019-04-07T10:18:20.486Z,7.53
2019-04-07T10:21:12.133Z,7.27
2019-04-07T10:23:49.707Z,7.73
2019-04-07T10:26:47.338Z,7.57
2019-04-07T10:29:27.581Z,7.47
2019-04-07T10:32:07.741Z,7.07
2019-04-07T10:34:59.286Z,7.40
2019-04-07T10:37:37.887Z,7.70
2019-04-07T10:40:25.463Z,7.17
2019-04-07T10:43:16.253Z,7.23
2019-04-07T10:45:51.381Z,7.67
2019-04-07T10:48:40.026Z,7.80
2019-04-07T10:51:27.439Z,7.60
2019-04-07T10:54:22.203Z,7.80
2019-04-07T10:56:56.442Z,8.17
2019-04-07T10:59:44.321Z,8.10
2019-04-07T11:02:31.405Z,7.40
2019-04-07T11:05:26.018Z,8.53
2019-04-07T11:08:16.897Z,6.87
2019-04-07T11:11:07.899Z,7.87
2019-04-07T11:13:48.871Z,7.53
2019-04-07T11:16:43.189Z,6.97
2019-04-07T11:19:28.571Z,7.80
2019-04-07T11:22:16.468Z,7.10
2019-04-07T11:24:57.796Z,7.10
2019-04-07T11:27:58.267Z,7.63
2019-04-07T11:30:52.402Z,7.60
2019-04-07T11:33:43.684Z,7.03
2019-04-07T11:36:46.924Z,7.40
2019-04-07T11:39:21.617Z,7.33
2019-04-07T11:42:21.456Z,7.90
2019-04-07T11:44:57.542Z,8.00
2019-04-07T11:47:42.815Z,7.57
2019-04-07T11:50:23.759Z,7.53
2019-04-07T11:53:03.852Z,7.97
2019-04-07T11:55:54.935Z,7.93
2019-04-07T11:58:48.844Z,7.40
2019-04-07T12:01:33.866Z,7.17
2019-04-07T12:04:31.658Z,7.47
2019-04-07T12:07:23.027Z,7.47
2019-04-07T12:10:14.252Z,7.27
2019-04-07T12:13:09.005Z,7.30
2019-04-07T12:15:46.286Z,7.03
2019-04-07T12:18:34.239Z,7.20
2019-04-07T12:21:21.587Z,7.30
2019-04-07T12:24:01.614Z,7.47
2019-04-07T12:26:42.468Z,7.53
2019-04-07T12:29:28.802Z,7.20
2019-04-07T12:32:19.076Z,7.37
2019-04-07T12:34:59.920Z,7.13
2019-04-07T12:37:42.338Z,7.33
2019-04-07T12:40:32.701Z,7.10
2019-04-07T12:43:12.129Z,6.87
2019-04-07T12:45:48.167Z,7.27
2019-04-07T12:48:32.179Z,7.13
2019-04-07T12:51:19.909Z,7.57
2019-04-07T12:54:07.340Z,7.10
2019-04-07T12:56:52.380Z,6.77
2019-04-07T12:59:51.428Z,7.20
2019-04-07T13:02:42.461Z,7.43
2019-04-07T13:05:22.894Z,6.87
2019-04-07T13:08:17.932Z,7.30
2019-04-07T13:10:59.031Z,6.50
2019-04-07T13:13:53.125Z,7.20
2019-04-07T13:16:29.548Z,6.93
2019-04-07T13:19:13.140Z,6.90
2019-04-07T13:22:05.468Z,7.67
2019-04-07T13:25:05.892Z,7.13
2019-04-07T13:27:50.485Z,7.17
2019-04-07T13:30:28.187Z,6.90
2019-04-07T13:33:27.163Z,6.37
2019-04-07T13:36:21.420Z,6.80
2019-04-07T13:38:58.822Z,6.50
2019-04-07T13:41:50.496Z,6.90
2019-04-07T13:44:38.752Z,6.80
2019-04-07T13:47:23.324Z,7.00
2019-04-07T13:50:00.905Z,6.87
2019-04-07T13:52:50.119Z,7.43
2019-04-07T13:55:28.577Z,6.37
2019-04-07T13:58:15.080Z,6.60
2019-04-07T14:00:53.107Z,6.73
2019-04-07T14:03:44.196Z,7.17
2019-04-07T14:06:36.223Z,7.00
2019-04-07T14:09:36.327Z,6.93
2019-04-07T14:12:24.872Z,6.80
2019-04-07T14:15:01.161Z,6.43
2019-04-07T14:17:41.941Z,6.37
2019-04-07T14:20:30.413Z,6.33
2019-04-07T14:23:15.146Z,7.13
2019-04-07T14:25:50.173Z,6.47
2019-04-07T14:28:28.694Z,6.70
2019-04-07T14:31:12.844Z,6.10
2019-04-07T14:34:00.014Z,7.17
2019-04-07T14:36:46.655Z,7.00
2019-04-07T14:39:23.891Z,6.07
2019-04-07T14:42:17.613Z,6.53
2019-04-07T14:45:05.620Z,6.00
2019-04-07T14:47:43.608Z,6.77
2019-04-07T14:50:41.597Z,6.23
2019-04-07T14:53:30.382Z,5.77
2019-04-07T14:56:17.576Z,6.40
2019-04-07T14:58:53.925Z,6.40
2019-04-07T15:01:34.812Z,7.10
2019-04-07T15:04:05.025Z,5.97
2019-04-07T15:06:34.974Z,6.60
2019-04-07T15:09:13.357Z,6.10
2019-04-07T15:11:46.704Z,6.07
2019-04-07T15:14:15.650Z,5.80
2019-04-07T15:16:45.037Z,6.33
2019-04-07T15:19:13.999Z,6.63
2019-04-07T15:21:43.189Z,6.57
2019-04-07T15:24:13.283Z,6.67
2019-04-07T15:26:42.500Z,5.93
2019-04-07T15:29:12.645Z,6.40
2019-04-07T15:31:42.575Z,7.00
2019-04-07T15:34:13.145Z,6.10
2019-04-07T15:36:42.838Z,6.70
2019-04-07T15:39:11.820Z,5.93
2019-04-07T15:41:42.676Z,6.27
2019-04-07T15:44:14.067Z,6.70
2019-04-07T15:46:42.594Z,7.13
2019-04-07T15:49:11.525Z,6.40
2019-04-07T15:51:41.585Z,6.60
2019-04-07T15:54:10.624Z,5.67
2019-04-07T15:56:39.462Z,6.93
2019-04-07T15:59:08.793Z,6.23
2019-04-07T16:01:38.542Z,6.33
2019-04-07T16:04:08.536Z,5.90
2019-04-07T16:06:37.482Z,6.33
2019-04-07T16:09:12.365Z,6.17
2019-04-07T16:11:39.189Z,6.57
2019-04-07T16:14:12.568Z,6.53
2019-04-07T16:16:39.386Z,6.20
2019-04-07T16:19:10.813Z,5.80
2019-04-07T16:21:41.437Z,6.30
2019-04-07T16:24:09.447Z,6.53
2019-04-07T16:26:38.278Z,6.60
2019-04-07T16:29:08.102Z,6.20
2019-04-07T16:31:37.177Z,6.40
2019-04-07T16:34:08.767Z,5.70
2019-04-07T16:36:36.658Z,5.77
2019-04-07T16:39:09.306Z,6.37
2019-04-07T16:41:37.790Z,6.33
2019-04-07T16:44:09.255Z,5.93
2019-04-07T16:46:37.105Z,5.67
2019-04-07T16:49:09.727Z,5.90
2019-04-07T16:51:36.594Z,5.80
2019-04-07T16:54:08.193Z,6.10
2019-04-07T16:56:35.922Z,5.80
2019-04-07T16:59:09.100Z,5.90
2019-04-07T17:01:35.321Z,5.60
2019-04-07T17:04:04.150Z,6.13
2019-04-07T17:06:35.882Z,5.83
2019-04-07T17:09:06.575Z,6.13
2019-04-07T17:11:39.424Z,5.30
2019-04-07T17:14:06.013Z,6.10
2019-04-07T17:16:34.750Z,5.53
2019-04-07T17:19:04.095Z,5.63
2019-04-07T17:21:33.152Z,5.87
2019-04-07T17:24:02.034Z,5.53
2019-04-07T17:26:30.856Z,5.50
2019-04-07T17:28:59.718Z,5.13
2019-04-07T17:31:31.830Z,5.50
2019-04-07T17:33:59.216Z,5.10
2019-04-07T17:36:28.210Z,5.63
2019-04-07T17:39:08.059Z,6.17
2019-04-07T17:41:37.022Z,5.47
2019-04-07T17:44:18.284Z,5.70
2019-04-07T17:47:16.526Z,5.50
2019-04-07T17:50:01.022Z,5.23
2019-04-07T17:52:48.250Z,4.97
2019-04-07T17:55:43.317Z,5.17
2019-04-07T17:58:36.951Z,5.10
2019-04-07T18:01:24.920Z,5.37
2019-04-07T18:04:15.495Z,5.43
2019-04-07T18:07:05.761Z,5.07
2019-04-07T18:09:52.360Z,5.60
2019-04-07T18:12:45.584Z,5.87
2019-04-07T18:15:48.787Z,5.37
2019-04-07T18:18:26.442Z,5.47
2019-04-07T18:21:15.528Z,5.30
2019-04-07T18:24:03.450Z,5.30
2019-04-07T18:26:42.400Z,5.70
2019-04-07T18:29:29.410Z,4.90
2019-04-07T18:32:10.919Z,4.97
2019-04-07T18:34:59.034Z,5.00
2019-04-07T18:37:42.171Z,5.70
2019-04-07T18:40:29.589Z,5.90
2019-04-07T18:43:21.515Z,5.13
2019-04-07T18:46:01.138Z,4.83
2019-04-07T18:49:00.981Z,5.60
2019-04-07T18:51:47.142Z,5.17
2019-04-07T18:54:35.549Z,5.07
2019-04-07T18:57:24.962Z,6.73
2019-04-07T19:00:12.696Z,9.53
2019-04-07T19:02:56.024Z,4.73
2019-04-07T19:05:38.121Z,6.10
2019-04-07T19:08:25.042Z,10.57
2019-04-07T19:11:10.652Z,5.10
2019-04-07T19:14:20.997Z,7.87
2019-04-07T19:16:52.473Z,4.90
2019-04-07T19:19:40.655Z,5.47
2019-04-07T19:22:27.544Z,5.17
2019-04-07T19:25:21.546Z,5.20
2019-04-07T19:28:01.066Z,4.60
2019-04-07T19:30:50.100Z,4.47
2019-04-07T19:33:37.622Z,4.43
2019-04-07T19:36:25.340Z,4.43
2019-04-07T19:39:11.818Z,4.20
2019-04-07T19:41:50.953Z,4.40
2019-04-07T19:44:38.538Z,4.70
2019-04-07T19:47:10.804Z,4.40
2019-04-07T19:50:14.684Z,4.23
2019-04-07T19:52:51.446Z,4.40
2019-04-07T19:55:28.472Z,4.20
2019-04-07T19:58:21.807Z,4.37
2019-04-07T20:01:12.961Z,4.03
2019-04-07T20:04:01.891Z,3.77
2019-04-07T20:06:48.421Z,3.90
2019-04-07T20:09:23.592Z,3.97
2019-04-07T20:12:02.287Z,3.50
2019-04-07T20:14:55.531Z,3.40
2019-04-07T20:17:41.520Z,3.70
2019-04-07T20:20:43.498Z,3.70
2019-04-07T20:23:29.596Z,4.20
2019-04-07T20:26:28.623Z,3.53
2019-04-07T20:29:23.574Z,3.73
2019-04-07T20:32:14.720Z,3.40
2019-04-07T20:35:15.687Z,3.60
2019-04-07T20:37:58.368Z,3.53
2019-04-07T20:40:38.826Z,3.50
2019-04-07T20:43:12.239Z,3.50
2019-04-07T20:46:03.209Z,3.57
2019-04-07T20:48:49.680Z,3.47
2019-04-07T20:51:47.979Z,3.03
2019-04-07T20:54:35.170Z,3.53
2019-04-07T20:57:24.754Z,3.10
2019-04-07T21:00:18.581Z,3.30
2019-04-07T21:03:09.126Z,3.20
2019-04-07T21:05:36.268Z,3.20
2019-04-07T21:08:14.523Z,3.37
2019-04-07T21:10:49.733Z,3.20
2019-04-07T21:13:37.451Z,3.30
2019-04-07T21:16:31.307Z,2.97
2019-04-07T21:19:18.730Z,3.07
2019-04-07T21:21:57.048Z,3.00
2019-04-07T21:24:35.766Z,3.13
2019-04-07T21:27:12.339Z,3.17
2019-04-07T21:30:00.355Z,3.17
2019-04-07T21:32:55.033Z,2.97
2019-04-07T21:35:42.921Z,2.80
2019-04-07T21:38:31.264Z,3.00
2019-04-07T21:41:12.193Z,2.93
2019-04-07T21:43:57.331Z,2.57
2019-04-07T21:46:39.468Z,2.60
2019-04-07T21:49:27.872Z,2.70
2019-04-07T21:52:28.193Z,2.57
2019-04-07T21:55:16.890Z,2.57
2019-04-07T21:58:25.083Z,3.00
2019-04-07T22:01:08.023Z,2.83
2019-04-07T22:04:05.000Z,2.70
2019-04-07T22:06:45.308Z,2.60
2019-04-07T22:09:19.179Z,3.13
2019-04-07T22:11:49.386Z,2.80
2019-04-07T22:14:18.856Z,2.80
2019-04-07T22:16:47.719Z,2.83
2019-04-07T22:19:17.576Z,2.63
2019-04-07T22:21:46.705Z,2.53
2019-04-07T22:24:15.469Z,2.90
2019-04-07T22:26:49.186Z,2.77
2019-04-07T22:29:14.711Z,2.90
2019-04-07T22:31:46.913Z,2.53
2019-04-07T22:34:16.624Z,2.87
2019-04-07T22:36:47.598Z,2.40
2019-04-07T22:39:16.261Z,2.63
2019-04-07T22:41:46.172Z,2.70
2019-04-07T22:44:15.545Z,2.53
2019-04-07T22:46:48.073Z,2.80
2019-04-07T22:49:15.590Z,2.20
2019-04-07T22:51:47.079Z,2.93
2019-04-07T22:54:15.289Z,2.50
2019-04-07T22:56:44.658Z,2.60
2019-04-07T22:59:13.513Z,2.70
2019-04-07T23:01:43.120Z,2.50
2019-04-07T23:04:12.030Z,2.60
2019-04-07T23:06:40.863Z,2.70
2019-04-07T23:09:09.969Z,2.67
2019-04-07T23:11:39.745Z,2.50
2019-04-07T23:14:09.467Z,2.80
2019-04-07T23:16:38.267Z,2.80
2019-04-07T23:19:07.129Z,2.80
2019-04-07T23:21:35.895Z,2.80
2019-04-07T23:24:05.492Z,2.87
2019-04-07T23:26:34.294Z,2.40
2019-04-07T23:29:03.706Z,2.33
2019-04-07T23:31:34.283Z,2.90
2019-04-07T23:34:03.287Z,2.60
2019-04-07T23:36:32.130Z,3.03
2019-04-07T23:39:01.580Z,2.53
2019-04-07T23:41:30.507Z,3.00
2019-04-07T23:43:59.275Z,2.63
2019-04-07T23:46:28.530Z,2.30
2019-04-07T23:48:58.127Z,2.60
2019-04-07T23:51:27.298Z,2.70
2019-04-07T23:54:09.321Z,2.83
2019-04-07T23:56:39.316Z,2.93
2019-04-07T23:59:08.354Z,2.60
